Alvadore, Oregon
Current Conditions -  °F | °C
As of 4:17 PM on Saturday 20 Dec 2014 (Local Time) from KEUG Reporting Station
Light Rain Light Rain  
Wind Chill: 12°   Ceiling: 2700
Heat Index: 12°   Visibility: 7mi
Dew Point: 11°   Wind: 15mph
Humidity: 93%   Direction: 190°S
Pressure: 29.79"   Gusts: NA
Location:  44.13°N, 123.26°W
Report Text: KEUG 210017Z 19013KT 7SM -RA OVC027 12/11 A2979 RMK AO2 P0003 T01220111
Loading
Personal Weather Stations






























Interactive Weather Map New forecast layout! Learn more

10-Day Weather Forecast

Advertisements
Track Severe Weather on mobile